Latest Weather Observations for McArthur River Mine

IDD60801

Issued at 2:01 pm CST Friday 30 January 2015 (issued every 30 minutes, with the page automatically refreshed every 10 minutes)

About weather observations | Map of weather stations | Latest weather observations for NT | Other Formats
Station Details ID: 014704 Name: MCARTHUR RIVER MINE AIRPORT Lat: -16.44 Lon: 136.08 Height: 40.0 m
Data from the previous 72 hours. | See also: Recent months at McArthur River Mine
Date/Time
CST
Temp
°C
App
Temp
°C
Dew
Point
Rel
Hum
%
Delta-T
°C
Wind Press
QNH
hPa
Press
MSL
hPa
Rain
since 9 am
mm
Dir
 
Spd
km/h
Gust
km/h
Spd
kts
Gust
kts
30/02:00pm 37.6 33.3 0.8 10 18.8 S 13 20 7 11 1004.5 - 0.0
30/01:30pm 37.1 33.5 5.2 14 17.4 SSW 13 19 7 10 1004.8 - 0.0
30/01:00pm 36.2 33.5 7.3 17 16.1 WSW 11 17 6 9 1005.3 - 0.0
30/12:30pm 36.0 33.4 6.2 16 16.4 SW 9 17 5 9 1005.8 - 0.0
30/12:00pm 35.5 33.8 7.5 18 15.7 W 6 13 3 7 1006.3 1006.0 0.0
30/11:30am 34.9 32.9 8.6 20 14.9 WSW 9 17 5 9 1006.6 - 0.0
30/11:00am 33.7 31.7 10.3 24 13.5 SW 11 17 6 9 1006.8 - 0.0
30/10:30am 32.6 31.0 11.7 28 12.3 S 11 15 6 8 1006.9 - 0.0
30/10:00am 31.5 30.4 11.8 30 11.6 S 9 13 5 7 1007.1 - 0.0
30/09:30am 30.4 29.3 13.2 35 10.3 SW 11 15 6 8 1007.2 - 0.0
30/09:00am 28.8 28.2 13.5 39 9.1 SW 9 15 5 8 1007.3 1007.0 0.0
30/08:30am 27.1 26.6 14.8 47 7.4 WSW 11 15 6 8 1007.3 - 0.0
30/08:00am 25.1 26.1 16.8 60 5.1 SSW 7 9 4 5 1007.2 - 0.0
30/07:30am 23.1 24.6 18.0 73 3.2 SW 7 11 4 6 1007.2 - 0.0
30/07:00am 21.2 23.4 19.1 88 1.3 SW 6 7 3 4 1007.0 - 0.0
30/06:30am 20.4 22.7 19.4 94 0.6 SW 6 7 3 4 1006.5 - 0.0
30/06:00am 20.4 22.8 19.6 95 0.5 SW 6 7 3 4 1006.0 1005.7 0.0
30/05:30am 20.7 23.1 19.7 94 0.6 SW 6 7 3 4 1005.8 - 0.0
30/05:00am 20.8 24.6 20.1 96 0.4 CALM 0 0 0 0 1005.4 - 0.0
30/04:30am 20.9 24.3 19.4 91 1.0 CALM 0 0 0 0 1005.3 - 0.0
30/04:00am 21.6 24.1 19.9 90 1.1 SSW 6 6 3 3 1005.4 - 0.0
30/03:30am 21.4 25.8 21.4 100 0.0 CALM 0 0 0 0 1005.5 - 0.0
30/03:00am 21.7 26.1 21.4 98 0.2 CALM 0 0 0 0 1005.5 1005.2 0.0
30/02:30am 22.3 26.3 20.6 90 1.1 CALM 0 0 0 0 1005.7 - 0.0
30/02:00am 22.6 26.1 19.6 83 1.9 CALM 0 0 0 0 1005.9 - 0.0
30/01:30am 22.7 26.4 19.9 84 1.8 CALM 0 0 0 0 1006.4 - 0.0
30/01:00am 22.8 24.6 18.8 78 2.5 E 7 9 4 5 1006.5 - 0.0
30/12:30am 23.4 24.7 17.6 70 3.6 WNW 7 9 4 5 1006.5 - 0.0
30/12:00am 23.8 26.4 18.4 72 3.4 N 2 9 1 5 1006.7 1006.4 0.0
 
Date/Time
CST
Temp
°C
App
Temp
°C
Dew
Point
Rel
Hum
%
Delta-T
°C
Wind Press
QNH
hPa
Press
MSL
hPa
Rain
since 9 am
mm
Dir
 
Spd
km/h
Gust
km/h
Spd
kts
Gust
kts
29/11:30pm 24.6 26.9 16.8 62 4.8 CALM 0 0 0 0 1006.8 - 0.0
29/11:00pm 24.7 25.7 15.3 56 5.7 N 4 6 2 3 1006.8 - 0.0
29/10:30pm 25.6 26.0 14.7 51 6.5 NNW 6 7 3 4 1006.6 - 0.0
29/10:00pm 26.1 27.5 15.5 52 6.4 WNW 2 6 1 3 1006.2 - 0.0
29/09:30pm 27.0 26.9 13.4 43 8.0 W 6 7 3 4 1005.9 - 0.0
29/09:00pm 28.2 27.8 14.1 42 8.5 SW 9 9 5 5 1005.6 1005.3 0.0
29/08:30pm 29.1 27.9 11.6 33 10.1 SW 9 13 5 7 1005.4 - 0.0
29/08:00pm 30.2 28.9 12.6 34 10.4 SW 11 13 6 7 1005.2 - 0.0
29/07:30pm 31.2 30.4 13.0 33 10.9 SW 9 11 5 6 1005.0 - 0.0
29/07:00pm 33.2 31.9 11.1 26 12.9 SW 9 11 5 6 1004.8 - 0.0
29/06:30pm 35.5 33.2 7.5 18 15.7 SSW 9 13 5 7 1004.2 - 0.0
29/06:00pm 36.4 33.1 4.6 14 17.1 S 11 15 6 8 1004.0 1003.7 0.0
29/05:30pm 37.0 32.1 1.7 11 18.2 SSW 17 22 9 12 1003.7 - 0.0
29/05:00pm 37.2 32.6 1.8 11 18.3 SSW 15 20 8 11 1003.6 - 0.0
29/04:30pm 37.3 32.6 0.6 10 18.6 S 15 19 8 10 1003.1 - 0.0
29/04:00pm 37.3 32.8 1.9 11 18.3 SSW 15 26 8 14 1003.1 - 0.0
29/03:30pm 37.0 32.6 0.4 10 18.4 SSW 13 20 7 11 1003.1 - 0.0
29/03:00pm 37.2 33.2 3.1 12 18.0 SSW 13 17 7 9 1003.5 1003.2 0.0
29/02:30pm 37.0 33.2 1.7 11 18.2 S 11 20 6 11 1003.9 - 0.0
29/02:00pm 36.2 32.9 4.5 14 17.0 W 11 15 6 8 1004.4 - 0.0
29/01:30pm 35.9 32.0 0.9 11 17.7 S 11 15 6 8 1004.9 - 0.0
29/01:00pm 35.4 31.2 -0.8 10 17.7 SE 11 17 6 9 1005.3 - 0.0
29/12:30pm 35.3 31.3 -2.3 9 17.9 SSE 9 20 5 11 1005.7 - 0.0
29/12:00pm 34.7 30.1 -1.4 10 17.5 S 13 24 7 13 1005.8 1005.5 0.0
29/11:30am 34.7 31.2 3.3 14 16.3 SE 11 19 6 10 1005.9 - 0.0
29/11:00am 33.9 30.6 4.6 16 15.5 SSE 11 17 6 9 1006.3 - 0.0
29/10:30am 33.8 30.7 5.4 17 15.2 SSE 11 19 6 10 1006.5 - 0.0
29/10:00am 32.1 28.9 7.0 21 13.7 SSE 13 17 7 9 1006.6 - 0.0
29/09:30am 31.1 28.9 9.3 26 12.3 SSE 11 17 6 9 1006.7 - 0.0
29/09:00am 29.8 29.4 14.0 38 9.5 S 9 13 5 7 1006.7 1006.4 0.0
29/08:30am 27.3 29.2 18.6 59 5.6 WSW 6 9 3 5 1006.7 - 0.0
29/08:00am 25.6 27.6 18.8 66 4.3 W 6 7 3 4 1006.3 - 0.0
29/07:30am 24.0 28.5 21.5 86 1.7 CALM 0 6 0 3 1006.2 - 0.0
29/07:00am 23.0 26.9 23.0 100 0.0 SW 7 7 4 4 1005.5 - 0.0
29/06:30am 22.3 26.0 22.3 100 0.0 WSW 6 7 3 4 1005.2 - 0.0
29/06:00am 22.1 25.7 22.1 100 0.0 WSW 6 7 3 4 1004.8 1004.5 0.0
29/05:30am 22.2 25.9 22.2 100 0.0 W 6 7 3 4 1004.5 - 0.0
29/05:00am 22.6 26.5 22.6 100 0.0 W 6 7 3 4 1004.3 - 0.0
29/04:30am 23.4 28.9 23.4 100 0.0 CALM 0 0 0 0 1004.2 - 0.0
29/04:00am 23.7 28.0 23.7 100 0.0 SW 7 9 4 5 1004.2 - 0.0
29/03:30am 24.0 28.7 24.0 100 0.0 SW 6 7 3 4 1004.3 - 0.0
29/03:00am 24.3 30.3 24.3 100 0.0 CALM 0 0 0 0 1004.4 1004.1 0.0
29/02:30am 24.7 29.8 24.7 100 0.0 WSW 6 7 3 4 1004.5 - 0.0
29/02:00am 25.4 31.3 25.4 100 0.0 SSW 4 7 2 4 1004.7 - 0.0
29/01:30am 25.6 32.1 25.6 100 0.0 S 2 6 1 3 1005.1 - 0.0
29/01:00am 25.9 32.9 25.9 100 0.0 CALM 0 0 0 0 1005.4 - 0.0
29/12:30am 26.4 33.8 26.4 100 0.0 CALM 0 0 0 0 1005.7 - 0.0
29/12:00am 27.2 34.3 26.0 93 0.9 CALM 0 0 0 0 1005.8 1005.5 0.0
 
Date/Time
CST
Temp
°C
App
Temp
°C
Dew
Point
Rel
Hum
%
Delta-T
°C
Wind Press
QNH
hPa
Press
MSL
hPa
Rain
since 9 am
mm
Dir
 
Spd
km/h
Gust
km/h
Spd
kts
Gust
kts
28/11:30pm 27.2 33.9 26.0 93 0.8 ESE 2 11 1 6 1005.9 - 0.0
28/11:00pm 27.5 33.3 24.5 84 2.1 SSE 2 7 1 4 1006.1 - 0.0
28/10:30pm 28.0 33.2 23.6 77 3.0 N 2 6 1 3 1006.1 - 0.0
28/10:00pm 28.1 32.6 23.7 77 3.0 NNW 6 7 3 4 1006.2 - 0.0
28/09:30pm 28.7 32.7 23.1 71 3.8 WNW 7 9 4 5 1005.8 - 0.0
28/09:00pm 29.6 32.7 22.1 64 5.1 N 9 11 5 6 1005.4 1005.1 0.0
28/08:30pm 30.7 33.1 20.0 52 7.1 N 7 11 4 6 1004.8 - 0.0
28/08:00pm 31.2 32.2 16.4 41 9.3 NE 6 13 3 7 1004.0 - 0.0
28/07:30pm 32.5 32.2 13.2 31 11.6 E 7 11 4 6 1003.5 - 0.0
28/07:00pm 33.2 32.9 13.3 30 12.0 E 7 9 4 5 1003.0 - 0.0
28/06:30pm 35.6 34.9 11.3 23 14.4 SSE 6 9 3 5 1002.5 - 0.0
28/06:00pm 36.3 35.4 11.2 22 14.9 SE 7 9 4 5 1002.1 1001.8 0.0
28/05:30pm 36.9 34.5 7.0 16 16.7 SE 9 15 5 8 1002.1 - 0.0
28/05:00pm 37.3 35.2 8.2 17 16.6 S 9 13 5 7 1002.1 - 0.0
28/04:30pm 37.6 34.5 5.6 14 17.5 SSE 11 15 6 8 1002.0 - 0.0
28/04:00pm 37.7 34.8 4.6 13 17.9 SSE 9 15 5 8 1002.1 - 0.0
28/03:30pm 37.3 33.3 3.1 12 18.0 S 13 20 7 11 1002.2 - 0.0
28/03:00pm 37.4 34.5 6.4 15 17.3 S 11 17 6 9 1002.2 1001.9 0.0
28/02:30pm 37.2 34.1 7.2 16 16.8 ESE 13 20 7 11 1002.5 - 0.0
28/02:00pm 37.2 35.3 8.9 18 16.3 SE 9 17 5 9 1002.7 - 0.0
28/01:30pm 36.7 33.7 5.9 15 16.9 SSE 11 17 6 9 1003.0 - 0.0
28/01:00pm 36.1 31.2 2.2 12 17.5 S 17 22 9 12 1003.5 - 0.0
28/12:30pm 35.8 32.4 7.8 18 15.7 SE 15 24 8 13 1003.8 - 0.0
28/12:00pm 35.8 32.3 7.0 17 16.0 SE 15 24 8 13 1004.1 1003.8 0.0
28/11:30am 35.2 31.9 6.5 17 15.8 SE 13 20 7 11 1004.4 - 0.0
28/11:00am 34.6 31.6 7.6 19 15.0 ESE 13 20 7 11 1004.8 - 0.0
28/10:30am 34.0 29.9 6.3 18 15.1 SSE 17 22 9 12 1004.9 - 0.0
28/10:00am 32.9 30.2 9.0 23 13.5 SSE 13 20 7 11 1005.0 - 0.0
28/09:30am 31.7 30.2 9.3 25 12.6 S 7 15 4 8 1005.4 - 0.0
28/09:00am 30.4 28.4 11.4 31 11.1 S 13 15 7 8 1005.4 1005.1 0.2
28/08:30am 29.1 28.9 15.6 44 8.3 S 11 15 6 8 1005.2 - 0.2
28/08:00am 27.8 28.7 16.7 50 6.9 SW 7 9 4 5 1005.2 - 0.2
28/07:30am 25.2 30.1 22.3 84 1.9 CALM 0 0 0 0 1005.1 - 0.2
28/07:00am 23.3 28.0 23.3 100 0.0 WSW 4 7 2 4 1004.9 - 0.2
28/06:30am 22.6 26.3 22.6 100 0.0 NW 7 9 4 5 1004.4 - 0.2
28/06:00am 22.9 27.0 22.9 100 0.0 W 6 7 3 4 1004.1 1003.8 0.2
28/05:30am 23.5 27.9 23.5 100 0.0 W 6 7 3 4 1003.7 - 0.2
28/05:00am 24.0 29.7 23.8 99 0.1 CALM 0 0 0 0 1003.6 - 0.2
28/04:30am 24.1 28.7 24.1 100 0.0 NNW 7 9 4 5 1003.8 - 0.2
28/04:00am 24.4 29.2 24.4 100 0.0 WSW 7 9 4 5 1003.7 - 0.2
28/03:30am 25.3 31.6 25.3 100 0.0 S 2 7 1 4 1003.4 - 0.2
28/03:00am 25.2 31.8 25.2 100 0.0 CALM 0 0 0 0 1003.4 1003.1 0.2
28/02:30am 25.9 31.8 25.9 100 0.0 SSW 6 7 3 4 1003.6 - 0.2
28/02:25am 26.0 32.0 26.0 100 0.0 SSW 6 9 3 5 1003.6 - 0.2
28/02:07am 26.0 - 26.2 - - WSW 7 9 4 5 1003.8 - 0.2
28/02:00am 26.2 - 26.4 - - WSW 7 9 4 5 1003.8 - 0.2
28/01:30am 26.8 - 27.0 - - SSW 2 6 1 3 1004.3 - 0.2
28/01:00am 27.0 - 27.2 - - SW 6 7 3 4 1004.6 - 0.2
28/12:30am 27.4 - 27.6 - - CALM 0 0 0 0 1005.0 - 0.2
28/12:00am 27.6 35.8 27.6 100 0.0 CALM 0 0 0 0 1005.1 1004.8 0.2
 
Date/Time
CST
Temp
°C
App
Temp
°C
Dew
Point
Rel
Hum
%
Delta-T
°C
Wind Press
QNH
hPa
Press
MSL
hPa
Rain
since 9 am
mm
Dir
 
Spd
km/h
Gust
km/h
Spd
kts
Gust
kts
27/11:30pm 27.7 35.7 27.4 98 0.2 CALM 0 0 0 0 1005.4 - 0.2
27/11:00pm 28.4 34.6 26.4 89 1.4 NW 6 7 3 4 1005.5 - 0.2
27/10:30pm 28.5 34.5 26.1 87 1.7 W 6 7 3 4 1005.4 - 0.2
27/10:00pm 28.8 34.8 26.4 87 1.7 WNW 7 9 4 5 1005.3 - 0.2
27/09:30pm 29.2 35.3 27.0 88 1.6 WSW 9 13 5 7 1005.2 - 0.2
27/09:08pm 29.8 37.2 26.4 82 2.4 CALM 0 6 0 3 1004.5 - 0.2
27/09:00pm 30.0 35.6 25.5 77 3.2 NNW 6 7 3 4 1004.3 1004.0 0.2
27/08:54pm 30.1 35.5 25.2 75 3.5 NNW 6 7 3 4 1004.2 - 0.2
27/08:30pm 30.5 36.0 24.6 70 4.1 NW 4 7 2 4 1004.0 - 0.2
27/08:26pm 30.5 36.0 24.6 70 4.1 NW 4 7 2 4 1004.0 - 0.2
27/08:16pm 30.8 35.7 24.4 68 4.5 NNW 6 7 3 4 1003.8 - 0.2
27/08:00pm 31.1 35.5 23.5 64 5.3 N 6 9 3 5 1003.6 - 0.2
27/07:30pm 31.6 35.9 23.7 63 5.5 N 7 11 4 6 1003.1 - 0.2
27/07:00pm 32.4 35.5 22.2 55 7.0 N 9 11 5 6 1002.8 - 0.2
27/06:30pm 33.5 36.3 21.6 49 8.1 N 9 13 5 7 1002.4 - 0.2
27/06:00pm 34.8 38.0 20.4 43 9.7 NNE 4 11 2 6 1002.3 1002.0 0.2
27/05:30pm 35.4 36.3 17.6 35 11.5 NE 9 9 5 5 1002.2 - 0.2
27/05:00pm 35.7 37.3 16.9 32 12.1 SE 4 9 2 5 1002.2 - 0.2
27/04:30pm 35.8 37.1 17.5 34 11.8 S 7 11 4 6 1002.3 - 0.2
27/04:00pm 35.7 38.3 20.0 39 10.5 ESE 6 11 3 6 1002.4 - 0.2
27/03:30pm 35.4 37.8 20.1 40 10.2 NE 7 9 4 5 1002.8 - 0.2
27/03:00pm 34.6 37.3 20.6 44 9.4 ESE 7 11 4 6 1003.1 1002.8 0.2
27/02:30pm 34.6 36.9 19.4 40 10.1 WSW 6 9 3 5 1003.4 - 0.2

Other Formats:

Comma delimited format used in spreadsheet applications
http://www.bom.gov.au/fwo/IDD60801/IDD60801.94239.axf

JavaScript Object Notation format (JSON) in row-major order
http://www.bom.gov.au/fwo/IDD60801/IDD60801.94239.json